Time;durP1;ratioP1;P1;durP2;ratioP2;P2;SDS_P1;SDS_P2;PMS_P1;PMS_P2;Temp;Humidity;BMP_temperature;BMP_pressure;BME280_temperature;BME280_humidity;BME280_pressure;Samples;Min_cycle;Max_cycle;Signal;HPM_P1;HPM_P2
2022/03/18 00:00:31;;;;;;;17.30;15.70;;;;;;;20.49;44.11;102369.06;5052924;28;20084;-78
2022/03/18 00:02:59;;;;;;;18.13;15.63;;;;;;;20.49;44.17;102374.44;5053060;28;20057;-77
2022/03/18 00:05:27;;;;;;;17.77;16.02;;;;;;;20.49;44.09;102380.69;5052942;28;20048;-77
2022/03/18 00:07:54;;;;;;;17.65;15.88;;;;;;;20.51;44.04;102375.22;5053677;28;20059;-77
2022/03/18 00:10:22;;;;;;;17.80;15.90;;;;;;;20.49;44.00;102374.44;5052732;28;20068;-77
2022/03/18 00:12:53;;;;;;;18.15;16.45;;;;;;;20.49;43.97;102375.31;5040078;28;20401;-77
2022/03/18 00:15:23;;;;;;;18.70;16.75;;;;;;;20.49;43.73;102382.53;5031749;28;20037;-77
2022/03/18 00:17:51;;;;;;;19.58;17.50;;;;;;;20.49;43.80;102380.69;5031822;28;20045;-77
2022/03/18 00:20:19;;;;;;;17.83;16.10;;;;;;;20.49;43.57;102380.69;5033084;28;20405;-77
2022/03/18 00:22:48;;;;;;;17.13;15.40;;;;;;;20.51;43.54;102380.59;5032732;28;20045;-77
2022/03/18 00:25:17;;;;;;;18.08;16.27;;;;;;;20.49;43.63;102380.69;5032590;28;20041;-77
2022/03/18 00:27:46;;;;;;;17.52;15.82;;;;;;;20.49;43.36;102372.63;5032383;28;20041;-77
2022/03/18 00:30:16;;;;;;;17.52;15.82;;;;;;;20.50;43.36;102386.97;5032575;28;20048;-77
2022/03/18 00:32:45;;;;;;;16.90;15.30;;;;;;;20.50;43.31;102381.59;5032723;28;20052;-77
2022/03/18 00:35:34;;;;;;;16.17;14.63;;;;;;;20.51;43.33;102383.28;5032972;28;20045;-76
2022/03/18 00:38:04;;;;;;;17.88;16.08;;;;;;;20.51;43.32;102375.22;5033274;28;20068;-76
2022/03/18 00:40:32;;;;;;;19.30;15.77;;;;;;;20.50;43.19;102386.97;5032446;28;20046;-77
2022/03/18 00:43:03;;;;;;;18.38;16.48;;;;;;;20.50;43.09;102381.59;5031575;28;20057;-77
2022/03/18 00:45:32;;;;;;;17.67;15.95;;;;;;;20.51;43.03;102377.91;5032702;28;20049;-77
2022/03/18 00:53:31;;;;;;;18.95;16.92;;;;;;;20.52;42.88;102378.78;5032818;28;20045;-77
2022/03/18 00:55:59;;;;;;;17.85;16.10;;;;;;;20.53;42.94;102380.50;5032597;28;20037;-77
2022/03/18 00:58:26;;;;;;;16.85;15.27;;;;;;;20.52;42.87;102376.94;5032264;28;20048;-77
2022/03/18 01:00:55;;;;;;;17.05;15.27;;;;;;;20.54;42.67;102376.81;5033096;28;20049;-77
2022/03/18 01:03:22;;;;;;;16.83;15.13;;;;;;;20.53;42.58;102380.50;5032363;28;20046;-76
2022/03/18 01:05:50;;;;;;;17.95;16.25;;;;;;;20.54;42.57;102379.50;5032235;28;20045;-77
2022/03/18 01:08:17;;;;;;;17.00;15.30;;;;;;;20.52;42.69;102379.63;5031275;28;20511;-77
2022/03/18 01:10:45;;;;;;;17.92;16.17;;;;;;;20.52;42.54;102382.31;5032363;28;20497;-76
2022/03/18 01:13:12;;;;;;;16.42;14.90;;;;;;;20.52;42.49;102385.00;5031671;28;20038;-77
2022/03/18 01:15:39;;;;;;;16.52;14.82;;;;;;;20.52;42.41;102384.16;5032202;28;20042;-76
2022/03/18 01:18:07;;;;;;;17.90;14.93;;;;;;;20.52;42.79;102376.94;5032323;28;20046;-77
2022/03/18 01:20:34;;;;;;;15.70;14.15;;;;;;;20.53;42.81;102381.34;5032370;28;20050;-77
2022/03/18 01:23:06;;;;;;;16.08;14.48;;;;;;;20.52;42.82;102379.63;5031461;28;20041;-77
2022/03/18 01:25:34;;;;;;;16.70;14.98;;;;;;;20.53;42.79;102381.34;5032248;28;20056;-76
2022/03/18 01:28:02;;;;;;;15.73;14.02;;;;;;;20.51;43.05;102377.91;5032441;28;20049;-77
2022/03/18 01:30:29;;;;;;;16.13;14.48;;;;;;;20.52;43.11;102379.63;5032282;28;20050;-77
2022/03/18 01:33:00;;;;;;;15.88;14.43;;;;;;;20.52;42.81;102382.31;5032173;28;20045;-77
2022/03/18 01:35:29;;;;;;;15.77;14.27;;;;;;;20.51;42.99;102372.53;5031502;28;20042;-77
2022/03/18 01:37:56;;;;;;;16.80;15.00;;;;;;;20.51;43.08;102380.59;5031913;28;20064;-77
2022/03/18 01:40:23;;;;;;;15.18;13.60;;;;;;;20.51;42.99;102377.91;5034514;28;20045;-77
2022/03/18 01:42:51;;;;;;;16.38;13.90;;;;;;;20.51;42.95;102377.91;5035988;28;20045;-77
2022/03/18 01:45:18;;;;;;;16.13;14.52;;;;;;;20.52;42.97;102387.69;5035625;28;20404;-77
2022/03/18 01:47:46;;;;;;;15.18;13.57;;;;;;;20.51;43.03;102380.59;5034326;28;20045;-77
2022/03/18 01:50:14;;;;;;;14.55;13.05;;;;;;;20.52;43.09;102384.16;5035851;28;20048;-77
2022/03/18 01:52:44;;;;;;;15.98;14.38;;;;;;;20.53;42.93;102388.56;5034199;28;20397;-77
2022/03/18 01:55:16;;;;;;;15.30;13.85;;;;;;;20.52;42.96;102387.69;5036078;28;20742;-77
2022/03/18 01:57:44;;;;;;;14.63;13.13;;;;;;;20.52;42.97;102385.00;5035663;28;20050;-77
2022/03/18 02:00:13;;;;;;;16.55;15.05;;;;;;;20.53;43.01;102393.94;5034090;28;20057;-76
2022/03/18 02:02:40;;;;;;;15.70;14.20;;;;;;;20.54;43.06;102401.03;5035501;28;20037;-78
2022/03/18 02:05:10;;;;;;;15.13;13.52;;;;;;;20.54;42.85;102401.94;5035503;28;20477;-78
2022/03/18 02:07:37;;;;;;;15.70;13.90;;;;;;;20.54;42.88;102399.25;5035415;28;20052;-79
2022/03/18 02:10:07;;;;;;;14.77;13.27;;;;;;;20.56;42.87;102396.44;5033641;28;20057;-79
2022/03/18 02:12:35;;;;;;;14.63;13.10;;;;;;;20.56;42.79;102405.38;5035654;28;20048;-76
2022/03/18 02:15:04;;;;;;;15.77;13.57;;;;;;;20.56;42.94;102396.44;5034132;28;20041;-76
2022/03/18 02:17:31;;;;;;;14.63;13.05;;;;;;;20.55;42.91;102403.66;5034893;28;20516;-76
2022/03/18 02:19:59;;;;;;;14.85;13.40;;;;;;;20.55;43.08;102406.34;5035190;28;20527;-76
2022/03/18 02:22:27;;;;;;;14.70;13.30;;;;;;;20.55;43.02;102410.88;5034965;28;20189;-76
2022/03/18 02:24:55;;;;;;;14.80;13.25;;;;;;;20.55;43.09;102403.66;5033640;28;20053;-76
2022/03/18 02:27:23;;;;;;;14.20;12.98;;;;;;;20.54;43.06;102399.25;5034977;28;20049;-76
2022/03/18 02:29:50;;;;;;;14.40;13.00;;;;;;;20.54;43.01;102404.63;5034960;28;20049;-76
2022/03/18 02:32:19;;;;;;;12.75;11.63;;;;;;;20.53;43.13;102402.88;5035097;28;20042;-76
2022/03/18 02:34:47;;;;;;;13.90;12.55;;;;;;;20.54;43.12;102414.50;5033761;28;20056;-76
2022/03/18 02:37:14;;;;;;;14.75;13.25;;;;;;;20.54;43.19;102404.63;5035158;28;20405;-76
2022/03/18 02:39:41;;;;;;;14.52;13.13;;;;;;;20.54;43.07;102406.41;5034847;28;20057;-76
2022/03/18 02:42:09;;;;;;;13.57;12.25;;;;;;;20.53;43.01;102410.09;5034516;28;20045;-76
2022/03/18 02:44:36;;;;;;;14.77;13.27;;;;;;;20.52;43.04;102417.31;5034548;28;20045;-76
2022/03/18 02:47:04;;;;;;;13.90;12.68;;;;;;;20.53;43.00;102423.53;5034850;28;20044;-76
2022/03/18 02:49:32;;;;;;;15.05;13.63;;;;;;;20.54;43.04;102426.16;5034278;28;20053;-79
2022/03/18 02:52:00;;;;;;;14.02;12.68;;;;;;;20.53;43.10;102416.31;5033927;28;20401;-78
2022/03/18 02:54:27;;;;;;;13.55;12.27;;;;;;;20.53;43.10;102416.31;5034439;28;20046;-79
2022/03/18 02:56:55;;;;;;;14.05;12.73;;;;;;;20.54;43.11;102419.88;5034440;28;20374;-79
2022/03/18 02:59:22;;;;;;;13.73;12.43;;;;;;;20.53;42.96;102419.00;5034404;28;20053;-76
2022/03/18 03:01:49;;;;;;;14.55;13.15;;;;;;;20.54;42.89;102427.94;5034291;28;20046;-77
2022/03/18 03:04:17;;;;;;;13.40;12.00;;;;;;;20.54;42.78;102436.91;5034238;28;20401;-77
2022/03/18 03:09:30;;;;;;;13.52;12.30;;;;;;;20.55;42.86;102432.38;5034665;28;20056;-77
2022/03/18 03:11:58;;;;;;;13.48;12.27;;;;;;;20.55;42.66;102438.63;5033988;28;20045;-77
2022/03/18 03:14:25;;;;;;;13.30;12.00;;;;;;;20.55;42.86;102433.25;5033770;28;20052;-76
2022/03/18 03:16:53;;;;;;;13.90;12.38;;;;;;;20.56;42.84;102434.09;5033419;28;20030;-77
2022/03/18 03:19:20;;;;;;;13.98;12.68;;;;;;;20.58;42.76;102437.53;5032490;28;20053;-76
2022/03/18 03:21:48;;;;;;;14.25;12.75;;;;;;;20.56;42.77;102437.66;5032524;28;20049;-76
2022/03/18 03:24:15;;;;;;;13.60;12.20;;;;;;;20.57;42.72;102431.31;5034285;28;20045;-77
2022/03/18 03:26:43;;;;;;;13.95;12.50;;;;;;;20.57;42.58;102433.13;5033796;28;20052;-77
2022/03/18 03:29:10;;;;;;;13.25;11.95;;;;;;;20.58;42.69;102440.22;5033876;28;20045;-77
2022/03/18 03:31:37;;;;;;;13.38;12.07;;;;;;;20.58;42.65;102437.53;5033987;28;20397;-77
2022/03/18 03:34:05;;;;;;;14.57;12.00;;;;;;;20.58;42.73;102448.31;5033714;28;20046;-77
2022/03/18 03:36:32;;;;;;;16.75;11.68;;;;;;;20.57;42.78;102442.06;5034012;28;20501;-81
2022/03/18 03:39:00;;;;;;;13.55;12.30;;;;;;;20.56;42.74;102437.66;5032818;28;20053;-78
2022/03/18 03:41:27;;;;;;;13.43;12.02;;;;;;;20.57;42.72;102444.75;5033490;28;20045;-78
2022/03/18 03:43:54;;;;;;;14.07;12.68;;;;;;;20.57;42.80;102447.44;5033851;28;20049;-77
2022/03/18 03:46:22;;;;;;;12.90;11.60;;;;;;;20.56;42.81;102440.34;5033287;28;20052;-78
2022/03/18 03:48:49;;;;;;;13.30;11.93;;;;;;;20.56;42.78;102445.72;5033241;28;20045;-78
2022/03/18 03:51:20;;;;;;;12.57;11.35;;;;;;;20.55;42.95;102444.00;5033480;28;20117;-78
2022/03/18 03:53:47;;;;;;;13.80;12.40;;;;;;;20.55;42.78;102454.78;5033205;28;20056;-78
2022/03/18 03:56:14;;;;;;;12.60;11.23;;;;;;;20.55;42.71;102448.53;5033465;28;20052;-77
2022/03/18 03:58:42;;;;;;;13.38;12.02;;;;;;;20.54;42.76;102450.38;5032973;28;20049;-77
2022/03/18 04:01:09;;;;;;;13.88;12.60;;;;;;;20.53;42.50;102453.13;5033918;28;20056;-78
2022/03/18 04:03:37;;;;;;;13.48;12.07;;;;;;;20.54;42.47;102462.91;5032831;28;20057;-78
2022/03/18 04:06:05;;;;;;;12.95;11.52;;;;;;;20.53;42.32;102451.31;5032066;28;20045;-77
2022/03/18 04:08:32;;;;;;;12.68;11.48;;;;;;;20.53;42.36;102462.06;5033461;28;20048;-76
2022/03/18 04:10:59;;;;;;;12.93;11.75;;;;;;;20.54;42.50;102461.13;5033089;28;20056;-76
2022/03/18 04:13:27;;;;;;;12.90;11.60;;;;;;;20.53;42.37;102462.06;5033297;28;20056;-76
2022/03/18 04:15:55;;;;;;;12.98;11.68;;;;;;;20.54;42.29;102460.22;5032742;28;20038;-76
2022/03/18 04:18:22;;;;;;;13.52;12.23;;;;;;;20.54;42.22;102460.22;5032128;28;20045;-76
2022/03/18 04:20:50;;;;;;;13.23;11.90;;;;;;;20.55;42.28;102464.69;5033254;28;20042;-76
2022/03/18 04:23:17;;;;;;;13.30;12.00;;;;;;;20.54;42.19;102458.44;5032895;28;20053;-76
2022/03/18 04:25:44;;;;;;;12.35;11.15;;;;;;;20.54;42.24;102468.31;5032612;28;20397;-76
2022/03/18 04:28:11;;;;;;;12.57;11.38;;;;;;;20.54;42.10;102462.91;5033204;28;20045;-76
2022/03/18 04:30:39;;;;;;;12.23;10.77;;;;;;;20.54;42.26;102474.56;5032653;28;20049;-76
2022/03/18 04:33:06;;;;;;;12.77;11.57;;;;;;;20.55;42.26;102460.16;5032814;28;20373;-76
2022/03/18 04:35:34;;;;;;;12.90;11.70;;;;;;;20.54;42.16;102463.81;5033071;28;20045;-76
2022/03/18 04:38:01;;;;;;;13.60;11.18;;;;;;;20.55;42.09;102473.59;5032769;28;20045;-76
2022/03/18 04:40:29;;;;;;;13.02;11.82;;;;;;;20.55;42.15;102479.00;5032791;28;20409;-76
2022/03/18 04:42:56;;;;;;;12.38;11.15;;;;;;;20.54;42.23;102479.97;5032880;28;20041;-76
2022/03/18 04:45:24;;;;;;;12.57;10.63;;;;;;;20.53;42.04;102478.22;5032465;28;20052;-76
2022/03/18 04:47:56;;;;;;;12.95;11.60;;;;;;;20.53;42.19;102475.53;5032564;28;20057;-76
2022/03/18 04:50:24;;;;;;;12.02;10.93;;;;;;;20.53;42.08;102477.34;5032402;28;20045;-76
2022/03/18 04:52:51;;;;;;;13.10;11.80;;;;;;;20.53;42.29;102478.22;5032928;28;20511;-76
2022/03/18 04:55:18;;;;;;;13.05;11.73;;;;;;;20.52;42.23;102476.50;5032433;28;20042;-77
2022/03/18 04:57:46;;;;;;;12.20;11.10;;;;;;;20.51;42.04;102474.78;5032493;28;20041;-77
2022/03/18 05:00:14;;;;;;;12.57;11.43;;;;;;;20.52;42.06;102478.31;5032493;28;20417;-77
2022/03/18 05:02:42;;;;;;;13.02;11.80;;;;;;;20.51;42.09;102474.78;5031014;28;20053;-76
2022/03/18 05:05:10;;;;;;;12.65;11.35;;;;;;;20.51;41.98;102474.78;5032664;28;20092;-76
2022/03/18 05:07:39;;;;;;;14.32;11.65;;;;;;;20.52;42.16;102481.00;5032294;28;20044;-76
2022/03/18 05:10:08;;;;;;;12.82;11.63;;;;;;;20.52;41.99;102478.31;5032681;28;20048;-77
2022/03/18 05:12:35;;;;;;;12.52;10.90;;;;;;;20.50;41.99;102475.75;5032407;28;20042;-78
2022/03/18 05:15:03;;;;;;;12.63;11.25;;;;;;;20.52;42.01;102487.25;5032880;28;20072;-76
2022/03/18 05:17:30;;;;;;;13.18;11.43;;;;;;;20.53;41.79;102480.03;5035676;28;20057;-76
2022/03/18 05:20:02;;;;;;;11.38;10.32;;;;;;;20.54;41.92;102488.03;5035618;28;20041;-76
2022/03/18 05:22:30;;;;;;;11.77;10.50;;;;;;;20.54;42.10;102487.13;5035951;28;20049;-76
2022/03/18 05:24:59;;;;;;;13.10;11.80;;;;;;;20.54;41.89;102493.41;5036910;28;20061;-76
2022/03/18 05:27:27;;;;;;;12.05;10.90;;;;;;;20.54;42.09;102496.09;5035890;28;20041;-76
2022/03/18 05:29:55;;;;;;;12.73;10.75;;;;;;;20.54;41.83;102504.19;5036017;28;20045;-77
2022/03/18 05:32:22;;;;;;;11.88;10.77;;;;;;;20.54;41.86;102505.97;5036363;28;20041;-77
2022/03/18 05:34:50;;;;;;;12.45;11.15;;;;;;;20.55;41.82;102510.41;5036061;28;20053;-77
2022/03/18 05:37:17;;;;;;;12.07;10.88;;;;;;;20.57;41.76;102508.47;5035925;28;20046;-76
2022/03/18 05:39:44;;;;;;;12.60;11.30;;;;;;;20.58;41.87;102512.88;5035992;28;20049;-77
2022/03/18 05:42:12;;;;;;;13.50;11.55;;;;;;;20.58;41.65;102507.50;5035685;28;20068;-77
2022/03/18 05:44:39;;;;;;;12.32;11.07;;;;;;;20.58;41.67;102512.88;5035570;28;20052;-76
2022/03/18 05:47:07;;;;;;;13.13;11.82;;;;;;;20.58;41.63;102512.88;5035867;28;20061;-76
2022/03/18 05:49:35;;;;;;;11.68;10.57;;;;;;;20.57;42.02;102519.22;5035281;28;20058;-76
2022/03/18 05:52:08;;;;;;;;;;;;;;;20.56;41.71;102529.13;5036259;28;20045;-76
2022/03/18 05:54:35;;;;;;;11.63;10.52;;;;;;;20.54;41.93;102517.63;5035894;28;20288;-77
2022/03/18 05:57:02;;;;;;;11.45;10.40;;;;;;;20.54;41.74;102520.31;5035575;28;20045;-77
2022/03/18 05:59:36;;;;;;;12.55;11.32;;;;;;;20.53;41.88;102525.78;5035043;28;20064;-77
2022/03/18 06:02:04;;;;;;;11.27;10.20;;;;;;;20.52;42.06;102524.91;5034055;28;20060;-77
2022/03/18 06:04:34;;;;;;;11.80;10.70;;;;;;;20.53;41.95;102525.78;5035584;28;20045;-77
2022/03/18 06:07:05;;;;;;;12.15;10.98;;;;;;;20.52;41.96;102527.59;5034008;28;20045;-77
2022/03/18 06:12:18;;;;;;;14.00;11.45;;;;;;;20.52;41.97;102529.44;5035683;28;20053;-78
2022/03/18 06:14:46;;;;;;;11.90;10.80;;;;;;;20.52;41.86;102541.06;5035078;28;20048;-76
2022/03/18 06:17:13;;;;;;;12.68;11.40;;;;;;;20.52;41.96;102534.81;5034819;28;20045;-76
2022/03/18 06:19:41;;;;;;;11.68;10.57;;;;;;;20.52;42.02;102535.69;5033970;28;20075;-77
2022/03/18 06:22:08;;;;;;;12.75;10.95;;;;;;;20.52;41.99;102537.50;5034901;28;20037;-76
2022/03/18 06:24:35;;;;;;;12.13;10.60;;;;;;;20.53;41.74;102544.59;5035539;28;20049;-76
2022/03/18 06:27:04;;;;;;;11.98;10.70;;;;;;;20.52;41.95;102541.06;5033461;28;20041;-76
2022/03/18 06:29:31;;;;;;;11.77;10.68;;;;;;;20.52;41.85;102546.44;5034835;28;20056;-77
2022/03/18 06:31:59;;;;;;;12.00;10.90;;;;;;;20.53;41.74;102550.84;5017449;28;20056;-77
2022/03/18 06:34:27;;;;;;;12.60;11.45;;;;;;;20.53;41.74;102545.47;5035163;28;20049;-77
2022/03/18 06:37:00;;;;;;;12.27;10.57;;;;;;;20.53;41.84;102545.47;5034684;28;20041;-76
2022/03/18 06:39:30;;;;;;;11.65;10.52;;;;;;;20.53;41.77;102544.59;5035246;28;20049;-77
2022/03/18 06:41:57;;;;;;;12.63;11.38;;;;;;;20.55;41.60;102545.41;5034972;28;20052;-77
2022/03/18 06:44:26;;;;;;;11.98;10.90;;;;;;;20.55;41.72;102550.78;5034588;28;20049;-77
2022/03/18 06:46:54;;;;;;;16.25;11.35;;;;;;;20.54;41.67;102552.59;5034367;28;20089;-77
2022/03/18 06:49:22;;;;;;;12.25;11.05;;;;;;;20.55;41.62;102556.16;5034824;28;20042;-76
2022/03/18 06:51:49;;;;;;;12.43;11.23;;;;;;;20.55;41.64;102554.31;5034998;28;20057;-77
2022/03/18 06:54:17;;;;;;;12.48;11.27;;;;;;;20.55;41.67;102559.72;5033311;28;20056;-76
2022/03/18 06:56:44;;;;;;;11.60;10.50;;;;;;;20.56;41.66;102560.56;5034134;28;20093;-77
2022/03/18 06:59:12;;;;;;;13.52;11.93;;;;;;;20.56;41.57;102563.25;5034157;28;20057;-77
2022/03/18 07:01:39;;;;;;;13.18;11.77;;;;;;;20.55;41.63;102561.53;5034503;28;20401;-77
2022/03/18 07:04:07;;;;;;;12.43;11.23;;;;;;;20.55;41.53;102569.59;5034331;28;20041;-77
2022/03/18 07:06:34;;;;;;;12.60;11.40;;;;;;;20.54;41.74;102576.81;5034148;28;20094;-77
2022/03/18 07:09:02;;;;;;;12.52;11.23;;;;;;;20.55;41.77;102564.22;5033109;28;20049;-77
2022/03/18 07:11:29;;;;;;;11.80;10.70;;;;;;;20.55;41.73;102572.31;5033970;28;20049;-77
2022/03/18 07:13:57;;;;;;;12.73;11.20;;;;;;;20.54;41.77;102573.25;5032786;28;20053;-77
2022/03/18 07:19:10;;;;;;;11.73;10.60;;;;;;;20.54;41.72;102574.13;5033501;28;20493;-78
2022/03/18 07:21:37;;;;;;;12.60;11.30;;;;;;;20.55;41.76;102585.75;5033087;28;20048;-78
2022/03/18 07:24:05;;;;;;;12.65;11.40;;;;;;;20.55;41.75;102577.69;5032995;28;20045;-78
2022/03/18 07:26:32;;;;;;;12.00;11.00;;;;;;;20.55;42.06;102581.22;5033576;28;20045;-78
2022/03/18 07:29:04;;;;;;;12.00;10.80;;;;;;;20.55;41.97;102581.22;5033538;28;20045;-78
2022/03/18 07:31:32;;;;;;;12.25;11.00;;;;;;;20.57;41.76;102579.28;5034224;28;20053;-76
2022/03/18 07:33:59;;;;;;;12.63;11.43;;;;;;;20.58;41.93;102582.84;5033889;28;20389;-76
2022/03/18 07:36:27;;;;;;;12.35;11.13;;;;;;;20.57;41.90;102581.97;5031959;28;20045;-76
2022/03/18 07:38:54;;;;;;;11.40;10.40;;;;;;;20.59;41.70;102585.47;5033587;28;20393;-76
2022/03/18 07:41:21;;;;;;;13.82;11.00;;;;;;;20.59;41.50;102582.75;5033308;28;20049;-76
2022/03/18 07:43:49;;;;;;;12.02;10.93;;;;;;;20.60;41.57;102595.25;5033423;28;20041;-76
2022/03/18 07:46:17;;;;;;;12.55;11.25;;;;;;;20.61;41.77;102593.41;5033710;28;20405;-75
2022/03/18 07:48:46;;;;;;;13.60;11.30;;;;;;;20.62;41.76;102592.44;5031734;28;20404;-76
2022/03/18 07:51:14;;;;;;;12.75;11.20;;;;;;;20.63;41.65;102589.69;5033619;28;20049;-76
2022/03/18 07:53:41;;;;;;;12.52;11.25;;;;;;;20.62;41.77;102593.34;5033205;28;20041;-77
2022/03/18 07:56:08;;;;;;;13.75;12.38;;;;;;;20.61;41.68;102594.28;5033597;28;20397;-76
2022/03/18 07:58:36;;;;;;;12.90;11.52;;;;;;;20.60;42.08;102595.25;5031796;28;20048;-76
2022/03/18 08:01:07;;;;;;;13.68;12.30;;;;;;;20.60;41.75;102597.94;5032381;28;20049;-76
2022/03/18 08:03:35;;;;;;;12.07;10.80;;;;;;;20.59;41.83;102606.97;5033313;28;20045;-77
2022/03/18 08:06:03;;;;;;;13.70;12.35;;;;;;;20.58;41.94;102604.38;5034099;28;20053;-76
2022/03/18 08:08:31;;;;;;;12.90;11.27;;;;;;;20.57;42.02;102613.41;5053012;28;20052;-76
2022/03/18 08:10:59;;;;;;;14.18;12.77;;;;;;;20.53;42.29;102610.03;5052858;28;20389;-76
2022/03/18 08:13:26;;;;;;;14.77;13.32;;;;;;;20.51;42.06;102614.69;5051546;28;20485;-76
2022/03/18 08:15:54;;;;;;;13.63;12.38;;;;;;;20.49;42.01;102621.97;5053127;28;20056;-76
2022/03/18 08:18:21;;;;;;;17.15;13.68;;;;;;;20.48;41.91;102622.91;5051576;28;20053;-76
2022/03/18 08:20:50;;;;;;;14.95;13.38;;;;;;;20.46;41.83;102616.75;5039378;28;20038;-76
2022/03/18 08:23:18;;;;;;;16.17;14.48;;;;;;;20.44;41.66;102627.59;5033624;28;20511;-76
2022/03/18 08:25:45;;;;;;;15.40;13.80;;;;;;;20.44;41.79;102624.06;5033176;28;20045;-76
2022/03/18 08:28:13;;;;;;;17.27;14.25;;;;;;;20.42;41.76;102626.84;5051006;28;20044;-76
2022/03/18 08:30:40;;;;;;;17.95;16.08;;;;;;;20.42;41.67;102626.00;5052464;28;20052;-76
2022/03/18 08:33:08;;;;;;;17.05;15.35;;;;;;;20.42;41.48;102631.38;5053301;28;20508;-76
2022/03/18 08:35:36;;;;;;;18.63;16.67;;;;;;;20.39;41.56;102640.47;5052885;28;20093;-76
2022/03/18 08:38:07;;;;;;;16.30;14.75;;;;;;;20.40;41.37;102633.28;5051613;28;20400;-76
2022/03/18 08:40:36;;;;;;;16.75;15.18;;;;;;;20.39;41.35;102632.41;5052521;28;20049;-76
2022/03/18 08:43:06;;;;;;;18.73;16.83;;;;;;;20.39;41.32;102637.78;5051962;28;20045;-76
2022/03/18 08:45:34;;;;;;;18.85;16.88;;;;;;;20.38;41.24;102638.75;5052506;28;20381;-76
2022/03/18 08:48:02;;;;;;;18.58;15.07;;;;;;;20.38;40.89;102632.53;5051545;28;20060;-77
2022/03/18 08:50:30;;;;;;;17.20;15.55;;;;;;;20.38;41.01;102630.69;5055148;28;20045;-76
2022/03/18 08:52:57;;;;;;;17.02;14.65;;;;;;;20.39;40.98;102631.53;5055550;28;20045;-76
2022/03/18 08:55:25;;;;;;;15.80;14.32;;;;;;;20.40;40.68;102638.66;5056691;28;20055;-76
2022/03/18 08:57:53;;;;;;;17.00;15.25;;;;;;;20.39;40.94;102645.00;5055184;28;20056;-75
2022/03/18 09:00:21;;;;;;;16.88;15.07;;;;;;;20.40;40.71;102650.28;5055953;28;20404;-76
2022/03/18 09:02:49;;;;;;;16.80;15.00;;;;;;;20.42;40.71;102642.13;5054917;28;20060;-76
2022/03/18 09:05:17;;;;;;;16.80;15.05;;;;;;;20.42;40.66;102647.50;5056640;28;20412;-76
2022/03/18 09:07:45;;;;;;;17.23;14.57;;;;;;;20.39;40.58;102637.78;5056000;28;20049;-76
2022/03/18 09:10:12;;;;;;;16.52;14.80;;;;;;;20.40;40.68;102644.88;5056390;28;20064;-76
2022/03/18 09:12:45;;;;;;;16.63;14.93;;;;;;;20.40;40.62;102642.19;5056496;28;20052;-76
2022/03/18 09:15:12;;;;;;;17.35;14.73;;;;;;;20.40;40.47;102649.41;5056221;28;20049;-76
2022/03/18 09:17:40;;;;;;;16.08;14.13;;;;;;;20.39;40.35;102648.56;5054953;28;20052;-76
2022/03/18 09:20:08;;;;;;;16.90;15.20;;;;;;;20.39;40.26;102648.56;5056354;28;20052;-76
2022/03/18 09:22:35;;;;;;;15.07;13.50;;;;;;;20.39;40.32;102645.84;5036067;28;20041;-76
2022/03/18 09:25:03;;;;;;;15.60;13.05;;;;;;;20.40;40.35;102650.28;5035970;28;20120;-76
2022/03/18 09:27:30;;;;;;;14.98;13.48;;;;;;;20.40;40.23;102647.59;5036402;28;20072;-75
2022/03/18 09:30:00;;;;;;;15.27;13.88;;;;;;;20.41;40.25;102661.91;5036357;28;20049;-76
2022/03/18 09:32:31;;;;;;;22.15;19.95;;;;;;;20.39;38.10;102659.31;5035858;28;20046;-76
2022/03/18 09:34:59;;;;;;;21.67;19.58;;;;;;;20.34;37.04;102660.56;5035582;28;20057;-76
2022/03/18 09:37:30;;;;;;;24.42;20.88;;;;;;;20.27;36.78;102665.44;5036835;28;20434;-76
2022/03/18 09:39:57;;;;;;;25.65;22.88;;;;;;;20.22;37.12;102662.19;5035674;28;20041;-76
2022/03/18 09:42:54;;;;;;;25.23;22.80;;;;;;;20.13;37.28;102655.50;5035728;28;20049;-75
2022/03/18 09:45:31;;;;;;;22.33;19.67;;;;;;;20.11;38.01;102660.13;5035731;28;20041;-76
2022/03/18 09:48:07;;;;;;;18.37;16.50;;;;;;;20.14;38.46;102654.56;5033798;28;20053;-76
2022/03/18 09:50:35;;;;;;;20.45;17.63;;;;;;;20.15;38.31;102650.06;5035964;28;20056;-78
2022/03/18 09:53:03;;;;;;;18.65;16.73;;;;;;;20.16;38.55;102657.16;5035442;28;20135;-76
2022/03/18 09:55:30;;;;;;;16.08;14.40;;;;;;;20.18;39.07;102652.56;5036042;28;20376;-76
2022/03/18 09:57:58;;;;;;;18.10;16.20;;;;;;;20.23;38.35;102654.00;5035423;28;20057;-76
2022/03/18 10:00:28;;;;;;;19.73;17.38;;;;;;;20.27;37.84;102656.50;5034770;28;20049;-76
2022/03/18 10:03:12;;;;;;;16.98;15.27;;;;;;;20.25;37.99;102654.78;5035699;28;20405;-76
2022/03/18 10:06:03;;;;;;;18.27;15.23;;;;;;;20.23;38.07;102656.69;5033891;28;20048;-76
2022/03/18 10:08:33;;;;;;;18.85;16.85;;;;;;;20.28;37.54;102663.63;5034939;28;20041;-76
2022/03/18 10:11:26;;;;;;;18.40;16.60;;;;;;;20.24;36.91;102666.47;5035670;28;20045;-76
2022/03/18 10:14:02;;;;;;;20.67;18.55;;;;;;;20.20;37.39;102659.56;5035444;28;20049;-76
2022/03/18 10:16:37;;;;;;;17.27;15.65;;;;;;;20.18;37.26;102671.38;5035262;28;20041;-76
2022/03/18 10:19:09;;;;;;;18.17;16.30;;;;;;;20.14;37.54;102670.72;5035289;28;20050;-76
2022/03/18 10:21:56;;;;;;;17.63;15.75;;;;;;;20.16;37.57;102668.78;5035151;28;20068;-76
2022/03/18 10:24:27;;;;;;;;;;;;;;;20.14;36.52;102667.16;5036327;28;20069;-76
2022/03/18 10:27:28;;;;;;;16.13;14.50;;;;;;;20.18;38.05;102672.25;5053439;28;19928;-76
2022/03/18 10:29:56;;;;;;;20.30;15.88;;;;;;;20.20;37.55;102678.38;5053603;28;20071;-76
2022/03/18 10:32:27;;;;;;;17.10;14.82;;;;;;;20.17;37.69;102672.31;5054903;28;20052;-76
2022/03/18 10:37:53;;;;;;;15.60;14.13;;;;;;;20.23;36.98;102680.03;5053102;28;20080;-76
2022/03/18 10:40:33;;;;;;;14.57;13.18;;;;;;;20.21;37.13;102685.47;5054379;28;20041;-76
2022/03/18 10:43:05;;;;;;;16.58;14.75;;;;;;;20.26;36.67;102685.22;5053516;28;20045;-76
2022/03/18 10:45:36;;;;;;;14.77;13.15;;;;;;;20.22;36.68;102684.56;5048400;28;20041;-76
2022/03/18 10:48:15;;;;;;;15.30;13.40;;;;;;;20.24;36.92;102685.31;5041383;28;20048;-76
2022/03/18 10:50:45;;;;;;;13.50;12.20;;;;;;;20.24;36.37;102688.00;5053809;28;20045;-76
2022/03/18 10:53:13;;;;;;;14.95;13.45;;;;;;;20.25;36.22;102691.53;5053417;28;20049;-76
2022/03/18 10:55:44;;;;;;;13.52;12.13;;;;;;;20.27;36.14;102692.34;5034268;28;20049;-76
2022/03/18 10:58:17;;;;;;;13.75;12.35;;;;;;;20.25;36.40;102689.75;5034312;28;20052;-76
2022/03/18 11:00:54;;;;;;;13.90;12.18;;;;;;;20.17;37.98;102686.63;5033095;28;20060;-76
2022/03/18 11:03:23;;;;;;;14.57;13.20;;;;;;;20.21;36.24;102690.00;5034638;28;20057;-76
2022/03/18 11:05:51;;;;;;;14.05;12.65;;;;;;;20.24;36.11;102687.13;5033784;28;20053;-76
2022/03/18 11:08:24;;;;;;;13.05;11.65;;;;;;;20.24;35.58;102688.00;5033728;28;20045;-76
2022/03/18 11:14:00;;;;;;;11.77;10.57;;;;;;;20.12;38.69;102691.44;5034746;28;20056;-75
2022/03/18 11:16:30;;;;;;;12.10;11.00;;;;;;;20.13;38.80;102697.66;5051571;28;20063;-76
2022/03/18 11:18:58;;;;;;;12.80;11.60;;;;;;;20.12;38.82;102694.13;5018893;28;20152;-76
2022/03/18 11:21:35;;;;;;;12.02;10.80;;;;;;;20.12;38.78;102698.63;5052318;28;20056;-76
2022/03/18 11:24:11;;;;;;;11.73;10.55;;;;;;;20.15;38.63;102695.78;5064429;28;20115;-76
2022/03/18 11:26:47;;;;;;;11.65;10.52;;;;;;;20.15;38.84;102693.94;5070949;28;20412;-76
2022/03/18 11:29:20;;;;;;;11.43;10.23;;;;;;;20.16;38.78;102694.81;5071544;28;20056;-76
2022/03/18 11:32:12;;;;;;;;;;;;;;;20.18;38.71;102698.28;5071732;28;20052;-76
2022/03/18 11:34:59;;;;;;;11.77;10.57;;;;;;;20.18;38.78;102701.84;5062146;28;19943;-76
2022/03/18 11:37:28;;;;;;;11.13;10.13;;;;;;;20.19;38.77;102698.19;5071278;28;20056;-75